Time;durP1;ratioP1;P1;durP2;ratioP2;P2;SDS_P1;SDS_P2;PMS_P1;PMS_P2;Temp;Humidity;BMP_temperature;BMP_pressure;BME280_temperature;BME280_humidity;BME280_pressure;Samples;Min_cycle;Max_cycle;Signal;HPM_P1;HPM_P2
2024/04/12 00:01:48;;;;;;;3.42;2.92;;;16.00;87.10;;;;;;5472009;26;20437;-63
2024/04/12 00:04:20;;;;;;;5.65;2.50;;;16.00;87.10;;;;;;5481046;26;20013;-68
2024/04/12 00:06:54;;;;;;;9.10;3.50;;;15.90;87.20;;;;;;5482664;26;20026;-69
2024/04/12 00:09:22;;;;;;;5.57;2.65;;;15.90;87.20;;;;;;5482404;26;20002;-68
2024/04/12 00:11:53;;;;;;;4.25;2.78;;;15.90;87.10;;;;;;5445163;26;20131;-68
2024/04/12 00:14:19;;;;;;;3.85;2.80;;;16.00;87.20;;;;;;5483823;26;20525;-69
2024/04/12 00:16:52;;;;;;;2.80;2.38;;;16.00;87.10;;;;;;5465693;26;20559;-69
2024/04/12 00:19:19;;;;;;;4.50;2.85;;;16.00;86.90;;;;;;5481130;26;20443;-69
2024/04/12 00:21:51;;;;;;;5.40;2.55;;;16.00;86.90;;;;;;5451945;26;19998;-69
2024/04/12 00:24:17;;;;;;;4.70;2.55;;;16.00;86.90;;;;;;5485204;26;20013;-68
2024/04/12 00:26:46;;;;;;;3.53;2.17;;;16.00;86.90;;;;;;5478230;26;20074;-69
2024/04/12 00:32:13;;;;;;;4.97;2.45;;;16.00;87.00;;;;;;5477641;26;20454;-69
2024/04/12 00:34:47;;;;;;;4.78;2.65;;;16.00;87.10;;;;;;5480856;26;20015;-68
2024/04/12 00:37:17;;;;;;;3.95;2.45;;;16.00;87.00;;;;;;5480967;26;19998;-69
2024/04/12 00:39:49;;;;;;;3.53;2.28;;;16.00;86.90;;;;;;5478069;26;20035;-69
2024/04/12 00:42:31;;;;;;;3.92;2.42;;;16.00;86.80;;;;;;5462157;26;20475;-70
2024/04/12 00:45:02;;;;;;;5.65;2.58;;;16.00;86.90;;;;;;5458708;26;20446;-62
2024/04/12 00:47:28;;;;;;;3.67;2.20;;;16.00;86.90;;;;;;5479748;26;21345;-63
2024/04/12 00:49:55;;;;;;;5.68;2.65;;;16.00;86.90;;;;;;5481689;26;20414;-63
2024/04/12 00:52:22;;;;;;;6.32;2.67;;;16.00;86.90;;;;;;5446746;26;20215;-62
2024/04/12 00:55:03;;;;;;;7.60;3.55;;;15.90;86.90;;;;;;5477404;26;20014;-62
2024/04/12 00:57:36;;;;;;;4.55;2.65;;;15.90;86.90;;;;;;5482931;26;20371;-62
2024/04/12 01:00:19;;;;;;;5.25;3.33;;;15.90;86.90;;;;;;5484189;26;20508;-62
2024/04/12 01:02:48;;;;;;;5.47;3.10;;;15.90;87.00;;;;;;5479388;26;20445;-62
2024/04/12 01:05:19;;;;;;;6.13;3.50;;;15.90;87.00;;;;;;5475216;26;20002;-62
2024/04/12 01:07:48;;;;;;;6.70;3.45;;;15.90;87.20;;;;;;5474401;26;20009;-62
2024/04/12 01:10:21;;;;;;;6.68;3.97;;;15.80;87.30;;;;;;5478801;26;20006;-62
2024/04/12 01:12:47;;;;;;;5.78;2.65;;;15.80;87.40;;;;;;5466345;26;20013;-62
2024/04/12 01:15:19;;;;;;;5.10;3.13;;;15.80;87.40;;;;;;5479219;26;20026;-62
2024/04/12 01:17:46;;;;;;;6.53;3.45;;;15.80;87.40;;;;;;5472879;26;20013;-62
2024/04/12 01:20:12;;;;;;;6.25;3.03;;;15.80;87.40;;;;;;5483292;26;20030;-62
2024/04/12 01:22:38;;;;;;;7.90;3.70;;;15.80;87.40;;;;;;5483257;26;20006;-62
2024/04/12 01:25:05;;;;;;;6.15;2.97;;;15.80;87.40;;;;;;5482828;26;20444;-62
2024/04/12 01:27:34;;;;;;;6.57;3.10;;;15.80;87.30;;;;;;5482115;26;20010;-62
2024/04/12 01:30:06;;;;;;;6.90;3.45;;;15.80;87.30;;;;;;5481486;26;20003;-62
2024/04/12 01:32:33;;;;;;;6.95;3.75;;;15.80;87.30;;;;;;5481885;26;19998;-62
2024/04/12 01:35:03;;;;;;;5.13;2.85;;;15.80;87.40;;;;;;5482774;26;20337;-62
2024/04/12 01:37:31;;;;;;;6.22;3.58;;;15.80;87.30;;;;;;5477499;26;20013;-62
2024/04/12 01:40:02;;;;;;;9.65;4.82;;;15.80;87.30;;;;;;5475313;26;20353;-62
2024/04/12 01:42:30;;;;;;;8.73;3.23;;;15.80;87.40;;;;;;5471739;26;20074;-62
2024/04/12 01:45:14;;;;;;;8.13;3.80;;;15.70;87.40;;;;;;5470295;26;20323;-62
2024/04/12 01:47:42;;;;;;;8.90;5.38;;;15.80;87.50;;;;;;5479348;26;19998;-62
2024/04/12 01:50:12;;;;;;;6.63;3.92;;;15.70;87.50;;;;;;5466153;26;20294;-62
2024/04/12 01:52:53;;;;;;;6.60;3.45;;;15.80;87.40;;;;;;5477607;26;20002;-68
2024/04/12 01:55:21;;;;;;;6.90;3.95;;;15.80;87.30;;;;;;5466285;26;20002;-63
2024/04/12 01:57:48;;;;;;;8.85;5.22;;;15.80;87.20;;;;;;5478667;26;20800;-62
2024/04/12 02:00:16;;;;;;;8.60;4.07;;;15.80;87.20;;;;;;5477589;26;20468;-63
2024/04/12 02:02:46;;;;;;;7.35;4.20;;;15.70;87.20;;;;;;5480603;26;20467;-63
2024/04/12 02:05:13;;;;;;;9.65;4.38;;;15.70;87.30;;;;;;5479336;26;20091;-63
2024/04/12 02:07:44;;;;;;;8.60;3.88;;;15.70;87.20;;;;;;5482490;26;20014;-63
2024/04/12 02:10:11;;;;;;;8.63;4.22;;;15.70;87.10;;;;;;5481766;26;20002;-63
2024/04/12 02:12:42;;;;;;;9.98;5.65;;;15.70;87.70;;;;;;5476002;26;20018;-63
2024/04/12 02:15:23;;;;;;;9.23;4.60;;;15.70;87.10;;;;;;5475644;26;20006;-63
2024/04/12 02:18:02;;;;;;;7.80;4.07;;;15.70;87.10;;;;;;5480207;26;20002;-63
2024/04/12 02:20:35;;;;;;;7.72;4.78;;;15.70;87.10;;;;;;5483046;26;20013;-63
2024/04/12 02:23:05;;;;;;;11.38;5.18;;;15.70;87.00;;;;;;5485706;26;20006;-63
2024/04/12 02:25:38;;;;;;;9.43;4.57;;;15.70;87.10;;;;;;5484144;26;20030;-63
2024/04/12 02:28:09;;;;;;;10.95;4.60;;;15.70;87.20;;;;;;5477131;26;20002;-63
2024/04/12 02:30:44;;;;;;;9.50;4.22;;;15.70;87.20;;;;;;5484412;26;19998;-64
2024/04/12 02:33:10;;;;;;;7.70;4.10;;;15.70;87.10;;;;;;5481890;26;20047;-63
2024/04/12 02:35:42;;;;;;;11.30;5.95;;;15.70;87.20;;;;;;5485766;26;20010;-63
2024/04/12 02:38:15;;;;;;;10.10;5.20;;;15.70;87.10;;;;;;5473320;26;20009;-63
2024/04/12 02:40:43;;;;;;;9.93;5.07;;;15.70;87.10;;;;;;5471800;26;20437;-63
2024/04/12 02:43:15;;;;;;;9.50;4.35;;;15.60;87.10;;;;;;5477338;26;19998;-63
2024/04/12 02:45:48;;;;;;;7.80;4.40;;;15.60;87.10;;;;;;5483464;26;20002;-63
2024/04/12 02:48:16;;;;;;;6.70;4.25;;;15.60;87.10;;;;;;5483480;26;20006;-63
2024/04/12 02:50:43;;;;;;;9.88;4.15;;;15.50;87.20;;;;;;5485862;26;19998;-63
2024/04/12 02:53:17;;;;;;;6.63;3.08;;;15.60;87.20;;;;;;5484686;26;20002;-63
2024/04/12 02:55:44;;;;;;;6.18;4.20;;;15.60;87.10;;;;;;5485441;26;20409;-63
2024/04/12 02:58:10;;;;;;;9.30;4.88;;;15.60;87.00;;;;;;5483662;26;20459;-63
2024/04/12 03:00:37;;;;;;;6.80;3.42;;;15.60;87.00;;;;;;5484958;26;20523;-63
2024/04/12 03:03:06;;;;;;;5.40;3.47;;;15.60;86.90;;;;;;5475954;26;20006;-64
2024/04/12 03:05:32;;;;;;;6.00;3.15;;;15.60;86.80;;;;;;5484523;26;19994;-63
2024/04/12 03:08:00;;;;;;;7.20;3.97;;;15.60;86.80;;;;;;5480636;26;20002;-63
2024/04/12 03:10:28;;;;;;;7.57;3.80;;;15.60;86.80;;;;;;5484160;26;20010;-63
2024/04/12 03:12:54;;;;;;;4.57;2.38;;;15.60;86.80;;;;;;5482064;26;20038;-63
2024/04/12 03:15:20;;;;;;;6.88;3.65;;;15.60;86.80;;;;;;5484194;26;20535;-63
2024/04/12 03:17:47;;;;;;;5.38;3.03;;;15.60;86.80;;;;;;5485521;26;20002;-63
2024/04/12 03:20:16;;;;;;;5.55;2.95;;;15.60;86.70;;;;;;5485599;26;20069;-64
2024/04/12 03:22:47;;;;;;;5.88;3.35;;;15.60;86.60;;;;;;5484215;26;20006;-63
2024/04/12 03:25:15;;;;;;;6.80;3.00;;;15.70;86.70;;;;;;5484223;26;19998;-64
2024/04/12 03:27:44;;;;;;;6.57;3.47;;;15.60;86.70;;;;;;5474807;26;20010;-63
2024/04/12 03:30:16;;;;;;;6.72;3.60;;;15.60;86.70;;;;;;5483204;26;19998;-63
2024/04/12 03:32:46;;;;;;;6.30;3.20;;;15.60;86.70;;;;;;5473485;26;20388;-63
2024/04/12 03:35:14;;;;;;;4.93;3.03;;;15.60;86.70;;;;;;5472687;26;19998;-64
2024/04/12 03:37:47;;;;;;;6.03;3.15;;;15.70;86.70;;;;;;5484802;26;20398;-63
2024/04/12 03:40:17;;;;;;;6.22;3.33;;;15.60;86.50;;;;;;5483055;26;19998;-63
2024/04/12 03:42:44;;;;;;;4.82;2.92;;;15.70;86.50;;;;;;5482886;26;20021;-63
2024/04/12 03:45:13;;;;;;;6.30;2.78;;;15.60;86.50;;;;;;5468011;26;20017;-63
2024/04/12 03:47:50;;;;;;;5.43;3.40;;;15.60;87.00;;;;;;5479770;26;20337;-63
2024/04/12 03:50:16;;;;;;;5.20;3.20;;;15.60;86.40;;;;;;5484341;26;20486;-64
2024/04/12 03:52:44;;;;;;;4.47;2.63;;;15.60;86.40;;;;;;5484900;26;20013;-63
2024/04/12 03:55:11;;;;;;;5.38;2.72;;;15.60;86.40;;;;;;5443720;26;20007;-63
2024/04/12 03:57:44;;;;;;;5.22;2.90;;;15.60;86.40;;;;;;5476187;26;20009;-69
2024/04/12 04:00:11;;;;;;;4.03;2.33;;;15.60;86.30;;;;;;5480511;26;20004;-69
2024/04/12 04:02:37;;;;;;;5.45;2.35;;;15.60;86.20;;;;;;5482359;26;19998;-63
2024/04/12 04:05:16;;;;;;;5.50;3.08;;;15.60;86.20;;;;;;5480741;26;20525;-63
2024/04/12 04:07:46;;;;;;;4.70;2.72;;;15.60;86.30;;;;;;5483632;26;20013;-71
2024/04/12 04:10:15;;;;;;;3.03;1.83;;;15.50;86.30;;;;;;5481524;26;20453;-69
2024/04/12 04:12:45;;;;;;;3.17;2.00;;;15.60;86.50;;;;;;5484878;26;20497;-69
2024/04/12 04:15:16;;;;;;;3.40;2.22;;;15.50;86.40;;;;;;5482956;26;20033;-69
2024/04/12 04:17:48;;;;;;;3.35;1.90;;;15.60;86.40;;;;;;5476915;26;20035;-69
2024/04/12 04:20:17;;;;;;;3.95;1.88;;;15.60;86.40;;;;;;5483333;26;20341;-69
2024/04/12 04:22:49;;;;;;;4.18;2.33;;;15.60;86.40;;;;;;5485125;26;20009;-69
2024/04/12 04:25:18;;;;;;;5.00;2.65;;;15.60;86.30;;;;;;5477585;26;20040;-70
2024/04/12 04:27:45;;;;;;;5.00;2.30;;;15.50;86.40;;;;;;5484188;26;20002;-69
2024/04/12 04:30:17;;;;;;;6.63;3.05;;;15.50;86.40;;;;;;5480277;26;20445;-69
2024/04/12 04:32:46;;;;;;;3.95;2.38;;;15.60;86.50;;;;;;5481850;26;20002;-70
2024/04/12 04:35:13;;;;;;;6.60;2.75;;;15.50;86.50;;;;;;5480892;26;20031;-69
2024/04/12 04:37:39;;;;;;;4.43;2.88;;;15.60;86.40;;;;;;5484855;26;19998;-69
2024/04/12 04:40:11;;;;;;;3.75;2.40;;;15.60;86.30;;;;;;5481040;26;20002;-70
2024/04/12 04:42:38;;;;;;;4.75;2.63;;;15.60;86.30;;;;;;5484492;26;20002;-70
2024/04/12 04:45:08;;;;;;;6.50;2.95;;;15.60;86.20;;;;;;5480293;26;20373;-63
2024/04/12 04:47:39;;;;;;;5.10;2.50;;;15.60;86.20;;;;;;5475713;26;20006;-69
2024/04/12 04:50:08;;;;;;;5.15;2.53;;;15.60;86.30;;;;;;5478210;26;20012;-70
2024/04/12 04:52:37;;;;;;;5.68;3.03;;;15.60;86.30;;;;;;5481415;26;20005;-69
2024/04/12 04:55:06;;;;;;;4.85;2.97;;;15.60;86.40;;;;;;5470126;26;20345;-71
2024/04/12 04:57:35;;;;;;;5.85;2.75;;;15.60;86.40;;;;;;5483861;26;19998;-70
2024/04/12 05:00:06;;;;;;;6.38;3.08;;;15.60;86.30;;;;;;5478423;26;20002;-69
2024/04/12 05:02:35;;;;;;;4.65;2.40;;;15.60;86.20;;;;;;5473505;26;19994;-69
2024/04/12 05:05:04;;;;;;;4.32;2.25;;;15.60;86.20;;;;;;5481014;26;20013;-69
2024/04/12 05:07:34;;;;;;;3.35;2.42;;;15.60;86.20;;;;;;5476611;26;20437;-69
2024/04/12 05:10:09;;;;;;;3.80;2.35;;;15.70;86.20;;;;;;5480474;26;20461;-69
2024/04/12 05:12:40;;;;;;;4.47;2.53;;;15.70;86.20;;;;;;5477834;26;19998;-69
2024/04/12 05:15:48;;;;;;;6.38;2.85;;;15.70;86.10;;;;;;5465357;26;20022;-70
2024/04/12 05:18:03;;;;;;;5.47;2.83;;;15.70;86.10;;;;;;5477000;26;20002;-64
2024/04/12 05:20:38;;;;;;;4.55;3.03;;;15.70;86.30;;;;;;5473881;26;20002;-62
2024/04/12 05:23:08;;;;;;;3.80;2.13;;;15.70;86.30;;;;;;5481581;26;20649;-62
2024/04/12 05:25:35;;;;;;;4.22;2.22;;;15.70;86.30;;;;;;5480858;26;20013;-62
2024/04/12 05:28:06;;;;;;;3.50;2.15;;;15.70;86.30;;;;;;5481858;26;20050;-62
2024/04/12 05:30:36;;;;;;;3.08;1.80;;;15.70;86.30;;;;;;5482161;26;20002;-63
2024/04/12 05:33:03;;;;;;;3.05;1.77;;;15.80;86.30;;;;;;5477444;26;19998;-63
2024/04/12 05:35:30;;;;;;;4.22;1.67;;;15.80;86.20;;;;;;5475824;26;20041;-68
2024/04/12 05:37:58;;;;;;;4.72;2.45;;;15.80;86.10;;;;;;5482797;26;19998;-68
2024/04/12 05:40:25;;;;;;;6.18;2.70;;;15.80;86.10;;;;;;5477860;26;19991;-63
2024/04/12 05:42:51;;;;;;;4.18;2.60;;;15.80;86.10;;;;;;5480998;26;20044;-63
2024/04/12 05:45:19;;;;;;;5.15;2.60;;;15.80;86.10;;;;;;5465989;26;20037;-69
2024/04/12 05:47:54;;;;;;;4.72;2.70;;;15.80;86.10;;;;;;5443755;26;20104;-68
2024/04/12 05:50:20;;;;;;;4.07;2.55;;;15.80;86.10;;;;;;5484205;26;19998;-62
2024/04/12 05:52:46;;;;;;;5.63;2.72;;;15.90;86.10;;;;;;5482040;26;19998;-63
2024/04/12 05:55:14;;;;;;;4.03;2.50;;;15.90;86.10;;;;;;5464705;26;20006;-63
2024/04/12 05:57:40;;;;;;;2.67;2.00;;;16.00;85.90;;;;;;5485557;26;19994;-63
2024/04/12 06:00:09;;;;;;;3.90;1.85;;;16.00;85.90;;;;;;5462959;26;20013;-63
2024/04/12 06:02:37;;;;;;;4.78;2.70;;;16.10;85.80;;;;;;5455378;26;20322;-63
2024/04/12 06:05:05;;;;;;;5.63;2.30;;;16.10;85.70;;;;;;5472479;26;20005;-63
2024/04/12 06:07:35;;;;;;;2.78;1.70;;;16.20;85.60;;;;;;5456907;26;20011;-63
2024/04/12 06:10:07;;;;;;;6.45;2.45;;;16.20;85.60;;;;;;5486844;26;20008;-63
2024/04/12 06:12:34;;;;;;;4.22;2.25;;;16.20;85.60;;;;;;5487070;26;20002;-63
2024/04/12 06:15:05;;;;;;;4.47;2.42;;;16.20;85.70;;;;;;5474813;26;19999;-63
2024/04/12 06:17:30;;;;;;;2.55;1.70;;;16.20;85.70;;;;;;5478302;26;20314;-63
2024/04/12 06:19:59;;;;;;;6.57;2.13;;;16.20;85.70;;;;;;5485526;26;20017;-63
2024/04/12 06:22:31;;;;;;;5.88;2.63;;;16.20;85.70;;;;;;5473389;26;20002;-63
2024/04/12 06:25:01;;;;;;;5.00;2.25;;;16.20;85.60;;;;;;5486149;26;20034;-63
2024/04/12 06:27:30;;;;;;;4.80;2.08;;;16.30;85.60;;;;;;5486902;26;20010;-68
2024/04/12 06:29:59;;;;;;;3.88;2.03;;;16.30;85.50;;;;;;5474481;26;20010;-68
2024/04/12 06:32:26;;;;;;;4.20;2.50;;;16.30;85.30;;;;;;5486734;26;20028;-68
2024/04/12 06:34:53;;;;;;;5.28;2.63;;;16.30;85.30;;;;;;5451907;26;19999;-68
2024/04/12 06:37:21;;;;;;;4.82;2.70;;;16.40;85.40;;;;;;5481720;26;20432;-69
2024/04/12 06:39:48;;;;;;;5.28;2.70;;;16.40;85.30;;;;;;5469558;26;20029;-69
2024/04/12 06:42:15;;;;;;;3.88;2.58;;;16.50;85.30;;;;;;5476356;26;20018;-63
2024/04/12 06:44:48;;;;;;;4.53;2.45;;;16.40;85.20;;;;;;5476145;26;20066;-63
2024/04/12 06:47:18;;;;;;;4.82;3.10;;;16.50;85.30;;;;;;5478402;26;20006;-63
2024/04/12 06:49:47;;;;;;;5.85;3.05;;;16.40;85.20;;;;;;5470254;26;20014;-63
2024/04/12 06:52:20;;;;;;;6.07;3.20;;;16.50;85.90;;;;;;5475892;26;20038;-63
2024/04/12 06:54:46;;;;;;;6.60;3.08;;;16.50;85.30;;;;;;5470718;26;20340;-63
2024/04/12 06:57:25;;;;;;;8.07;3.53;;;16.50;85.40;;;;;;5472383;26;20011;-62
2024/04/12 06:59:54;;;;;;;6.32;2.83;;;16.50;85.30;;;;;;5460790;26;20010;-63
2024/04/12 07:02:23;;;;;;;6.75;3.22;;;16.50;85.30;;;;;;5483928;26;20453;-62
2024/04/12 07:04:53;;;;;;;5.68;2.50;;;16.60;85.80;;;;;;5485131;26;20002;-62
2024/04/12 07:07:23;;;;;;;6.20;3.35;;;16.60;85.00;;;;;;5483100;26;20364;-62
2024/04/12 07:09:51;;;;;;;4.43;2.92;;;16.60;85.00;;;;;;5477022;26;19999;-68
2024/04/12 07:12:19;;;;;;;4.78;2.75;;;16.70;85.00;;;;;;5466000;26;20010;-70
2024/04/12 07:14:46;;;;;;;4.53;2.15;;;16.70;85.00;;;;;;5475266;26;20006;-69
2024/04/12 07:17:23;;;;;;;5.95;2.97;;;16.70;85.00;;;;;;5494371;26;20361;-69
2024/04/12 07:19:49;;;;;;;5.80;3.13;;;16.80;84.80;;;;;;5486632;26;20469;-70
2024/04/12 07:22:19;;;;;;;5.47;2.97;;;16.80;84.70;;;;;;5482974;26;20696;-70
2024/04/12 07:24:52;;;;;;;6.22;2.95;;;16.80;84.80;;;;;;5489500;26;19998;-69
2024/04/12 07:27:22;;;;;;;6.55;3.40;;;16.70;84.90;;;;;;5479270;26;20010;-71
2024/04/12 07:29:49;;;;;;;5.82;3.55;;;16.70;85.00;;;;;;5474137;26;19998;-70
2024/04/12 07:32:16;;;;;;;8.50;3.33;;;16.70;84.90;;;;;;5481143;26;20006;-70
2024/04/12 07:34:48;;;;;;;5.00;2.92;;;16.80;84.90;;;;;;5443245;26;20072;-61
2024/04/12 07:37:36;;;;;;;5.60;3.20;;;16.80;84.90;;;;;;5500540;26;20022;-63
2024/04/12 07:40:24;;;;;;;7.13;3.55;;;16.80;84.80;;;;;;5472740;26;19994;-63
2024/04/12 07:42:52;;;;;;;5.38;2.83;;;16.80;84.80;;;;;;5482106;26;20085;-63
2024/04/12 07:45:17;;;;;;;10.50;3.67;;;16.80;84.70;;;;;;5475919;26;20006;-63
2024/04/12 07:47:52;;;;;;;7.82;3.65;;;16.80;84.80;;;;;;5473282;26;20013;-63
2024/04/12 07:50:29;;;;;;;6.22;3.15;;;16.90;84.90;;;;;;5475351;26;19998;-69
2024/04/12 07:53:21;;;;;;;9.05;2.72;;;16.90;84.90;;;;;;5478938;26;20071;-70
2024/04/12 07:55:58;;;;;;;5.70;3.30;;;16.90;84.80;;;;;;5480641;26;20016;-69
2024/04/12 07:58:26;;;;;;;6.90;3.28;;;17.00;84.70;;;;;;5467693;26;20020;-70
2024/04/12 08:01:09;;;;;;;8.13;3.60;;;17.00;84.60;;;;;;5464896;26;20017;-69
2024/04/12 08:03:50;;;;;;;;;;;17.10;84.60;;;;;;5466774;26;20112;-69
2024/04/12 08:06:36;;;;;;;5.13;3.13;;;17.10;84.40;;;;;;5480852;26;19992;-69
2024/04/12 08:09:05;;;;;;;9.68;2.90;;;17.20;84.30;;;;;;5467084;26;20013;-70
2024/04/12 08:11:35;;;;;;;4.65;2.63;;;17.10;84.30;;;;;;5476758;26;20017;-70
2024/04/12 08:14:05;;;;;;;7.82;2.80;;;17.20;84.30;;;;;;5481421;26;20403;-69
2024/04/12 08:16:46;;;;;;;6.50;3.10;;;17.30;84.30;;;;;;5479822;26;19998;-69
2024/04/12 08:19:21;;;;;;;5.00;3.05;;;17.30;84.10;;;;;;5479038;26;20084;-69
2024/04/12 08:21:48;;;;;;;7.95;3.35;;;17.40;84.00;;;;;;5483290;26;20013;-69
2024/04/12 08:24:22;;;;;;;3.70;2.85;;;17.40;83.80;;;;;;5482984;26;20025;-69
2024/04/12 08:26:50;;;;;;;4.70;2.80;;;17.50;83.80;;;;;;5481076;26;19998;-68
2024/04/12 08:29:28;;;;;;;7.80;2.72;;;17.50;83.50;;;;;;5447710;26;20030;-69
2024/04/12 08:34:36;;;;;;;6.22;2.33;;;17.50;83.50;;;;;;5482398;26;20030;-68
2024/04/12 08:37:12;;;;;;;8.40;3.28;;;17.50;83.30;;;;;;5480187;26;20008;-69
2024/04/12 08:39:44;;;;;;;8.10;3.25;;;17.50;83.30;;;;;;5477752;25;20003;-68
2024/04/12 08:42:16;;;;;;;;;;;17.50;83.20;;;;;;5480908;26;19998;-69
2024/04/12 08:44:46;;;;;;;7.73;3.70;;;17.60;83.10;;;;;;5470338;26;19939;-68
2024/04/12 08:47:16;;;;;;;5.70;2.92;;;17.60;83.00;;;;;;5482145;26;20017;-69
2024/04/12 08:49:48;;;;;;;6.82;3.45;;;17.60;83.00;;;;;;5481148;26;20306;-69
2024/04/12 08:52:24;;;;;;;;;;;17.70;82.70;;;;;;5483528;26;20034;-69
2024/04/12 08:54:54;;;;;;;6.57;2.40;;;17.80;82.40;;;;;;5481706;26;19990;-68
2024/04/12 08:57:23;;;;;;;8.70;3.63;;;17.80;82.40;;;;;;5481457;26;20461;-68
2024/04/12 08:59:50;;;;;;;8.50;4.05;;;17.80;82.20;;;;;;5450604;26;20002;-68
2024/04/12 09:02:22;;;;;;;6.28;3.00;;;17.80;81.80;;;;;;5471470;26;20006;-68
2024/04/12 09:04:48;;;;;;;6.00;2.85;;;17.90;81.60;;;;;;5478146;26;20502;-68
2024/04/12 09:07:14;;;;;;;7.63;2.67;;;17.90;81.60;;;;;;5482268;26;20460;-63
2024/04/12 09:09:45;;;;;;;4.80;2.55;;;18.00;81.50;;;;;;5479873;26;20066;-63
2024/04/12 09:12:13;;;;;;;4.25;2.53;;;18.00;81.50;;;;;;5471101;26;20065;-69
2024/04/12 09:14:44;;;;;;;4.65;2.95;;;18.10;81.30;;;;;;5479049;26;20002;-69
2024/04/12 09:17:14;;;;;;;5.53;3.15;;;18.20;81.00;;;;;;5475555;26;20029;-69
2024/04/12 09:19:45;;;;;;;4.00;2.78;;;18.10;80.50;;;;;;5473357;26;21317;-69
2024/04/12 09:22:17;;;;;;;4.10;2.47;;;18.20;80.80;;;;;;5477966;26;20016;-69
2024/04/12 09:24:44;;;;;;;;;;;18.40;80.70;;;;;;5473408;26;20076;-69
2024/04/12 09:27:15;;;;;;;3.42;1.98;;;18.50;80.40;;;;;;5472837;26;19931;-70
2024/04/12 09:29:44;;;;;;;5.30;3.38;;;18.60;80.10;;;;;;5469611;26;20516;-69
2024/04/12 09:35:18;;;;;;;5.90;2.67;;;18.90;79.30;;;;;;5430283;26;19998;-69
2024/04/12 09:37:45;;;;;;;5.35;2.45;;;19.00;78.80;;;;;;5437482;26;19998;-70
2024/04/12 09:45:45;;;;;;;4.82;2.17;;;19.20;78.00;;;;;;5482670;25;20024;-70
2024/04/12 10:38:09;;;;;;;3.30;1.95;;;19.60;76.10;;;;;;5490501;26;20074;-63
2024/04/12 10:40:36;;;;;;;4.88;2.08;;;19.90;75.80;;;;;;5495246;26;20005;-63
2024/04/12 10:43:05;;;;;;;5.97;2.65;;;20.10;75.00;;;;;;5490951;26;20006;-63
2024/04/12 10:45:30;;;;;;;4.38;2.13;;;20.30;74.60;;;;;;5482099;26;20010;-63
2024/04/12 10:47:56;;;;;;;3.38;2.65;;;20.30;74.20;;;;;;5500468;26;20541;-63
2024/04/12 10:50:23;;;;;;;4.20;2.25;;;20.50;74.10;;;;;;5486332;26;20001;-63
2024/04/12 10:52:57;;;;;;;6.10;2.88;;;20.60;73.70;;;;;;5496253;26;19998;-63
2024/04/12 10:55:29;;;;;;;8.98;3.25;;;20.70;73.70;;;;;;5481377;26;20014;-63
2024/04/12 10:57:56;;;;;;;7.22;2.22;;;20.80;73.20;;;;;;5482488;26;20002;-63
2024/04/12 11:00:28;;;;;;;4.68;1.80;;;21.00;73.10;;;;;;5484996;26;19998;-65
2024/04/12 11:02:59;;;;;;;6.78;3.35;;;21.10;72.90;;;;;;5478434;26;20343;-64
2024/04/12 11:05:38;;;;;;;2.28;1.70;;;21.30;72.50;;;;;;5476526;26;20012;-69
2024/04/12 11:08:06;;;;;;;4.50;1.83;;;21.40;72.60;;;;;;5468360;26;20005;-70
2024/04/12 11:10:38;;;;;;;3.03;1.73;;;21.50;72.40;;;;;;5480891;26;19994;-71
2024/04/12 11:13:16;;;;;;;4.38;2.20;;;21.60;71.80;;;;;;5467648;26;19999;-70
2024/04/12 11:32:04;;;;;;;5.18;2.17;;;21.70;66.00;;;;;;5480807;26;20448;-69
2024/04/12 11:34:29;;;;;;;5.97;2.47;;;21.80;65.30;;;;;;5462976;26;19995;-69
2024/04/12 11:37:05;;;;;;;4.88;1.92;;;21.90;65.70;;;;;;5483178;26;20519;-69
2024/04/12 11:39:35;;;;;;;5.57;1.75;;;22.00;65.80;;;;;;5481957;26;20013;-69
2024/04/12 11:42:05;;;;;;;4.18;1.95;;;22.20;64.80;;;;;;5483651;26;20074;-69
2024/04/12 11:44:33;;;;;;;4.78;1.67;;;22.30;64.60;;;;;;5472560;26;20018;-69
2024/04/12 11:47:03;;;;;;;5.38;1.65;;;22.40;64.40;;;;;;5480625;26;19998;-69
2024/04/12 11:49:41;;;;;;;2.63;1.90;;;22.60;64.40;;;;;;5483998;26;20020;-69
2024/04/12 11:52:15;;;;;;;3.40;1.48;;;22.80;64.00;;;;;;5475320;26;20079;-70
2024/04/12 11:54:42;;;;;;;2.70;1.77;;;22.90;63.80;;;;;;5475272;26;20541;-70
2024/04/12 11:57:11;;;;;;;2.40;1.73;;;22.90;63.10;;;;;;5478707;26;19994;-70
2024/04/12 11:59:37;;;;;;;4.32;2.17;;;23.00;62.90;;;;;;5459751;26;20078;-70
2024/04/12 12:02:05;;;;;;;1.75;1.30;;;23.00;62.20;;;;;;5485062;26;20456;-71
2024/04/12 12:04:32;;;;;;;2.75;1.67;;;23.00;62.30;;;;;;5480066;26;20012;-70
2024/04/12 12:06:59;;;;;;;4.20;1.90;;;23.20;62.50;;;;;;5485097;26;20032;-68
2024/04/12 12:09:38;;;;;;;2.97;1.85;;;23.30;62.20;;;;;;5477491;26;20017;-70
2024/04/12 12:12:10;;;;;;;2.65;1.85;;;23.40;61.30;;;;;;5478699;26;20049;-69
2024/04/12 12:14:36;;;;;;;5.50;1.92;;;23.50;61.40;;;;;;5475355;26;20433;-72
2024/04/12 12:17:06;;;;;;;3.78;1.63;;;23.50;61.30;;;;;;5479009;26;20006;-69
2024/04/12 12:19:32;;;;;;;2.22;1.35;;;23.40;61.10;;;;;;5481673;26;20009;-64
2024/04/12 12:21:59;;;;;;;4.22;1.45;;;23.20;60.40;;;;;;5477011;26;20002;-64
2024/04/12 12:24:25;;;;;;;3.80;1.50;;;22.90;60.90;;;;;;5471715;26;20030;-64
2024/04/12 12:26:51;;;;;;;2.97;1.27;;;22.80;61.40;;;;;;5474343;26;20461;-65
2024/04/12 12:29:18;;;;;;;2.53;1.38;;;22.70;61.60;;;;;;5473694;26;20101;-72
2024/04/12 12:31:45;;;;;;;4.28;1.80;;;22.80;61.90;;;;;;5484142;26;20079;-71
2024/04/12 12:34:11;;;;;;;1.90;1.38;;;22.80;61.80;;;;;;5479752;26;20002;-72
2024/04/12 12:36:37;;;;;;;2.70;1.40;;;22.70;61.50;;;;;;5471483;26;20399;-72
2024/04/12 12:39:03;;;;;;;2.38;1.13;;;22.70;61.80;;;;;;5474569;26;20460;-72
2024/04/12 12:41:30;;;;;;;3.45;1.50;;;22.70;61.60;;;;;;5483836;26;20006;-71
2024/04/12 12:43:57;;;;;;;2.80;1.00;;;22.70;62.10;;;;;;5483251;26;20015;-71
2024/04/12 12:46:26;;;;;;;3.17;1.15;;;22.80;61.60;;;;;;5483741;26;20345;-64
2024/04/12 12:48:55;;;;;;;2.40;1.58;;;22.80;61.80;;;;;;5471533;26;19998;-63
2024/04/12 12:51:26;;;;;;;2.45;1.02;;;22.70;61.80;;;;;;5481117;26;19998;-64
2024/04/12 12:53:55;;;;;;;1.53;1.00;;;22.60;62.40;;;;;;5479253;26;20346;-64
2024/04/12 12:56:21;;;;;;;1.92;1.00;;;22.60;62.80;;;;;;5483696;26;20006;-71
2024/04/12 12:58:47;;;;;;;2.83;1.17;;;22.60;62.50;;;;;;5478604;26;20017;-72
2024/04/12 13:01:16;;;;;;;1.17;0.90;;;22.80;62.50;;;;;;5479982;26;19998;-71
2024/04/12 13:03:43;;;;;;;2.88;1.02;;;22.90;61.90;;;;;;5464253;26;20001;-72
2024/04/12 13:06:21;;;;;;;0.90;0.77;;;22.90;61.20;;;;;;5482899;26;19998;-73
2024/04/12 13:08:47;;;;;;;1.70;0.73;;;23.00;61.50;;;;;;5472923;26;19990;-64
2024/04/12 13:11:15;;;;;;;1.98;1.08;;;23.20;61.10;;;;;;5483758;26;20009;-64
2024/04/12 13:13:41;;;;;;;2.35;0.85;;;23.20;60.30;;;;;;5482470;26;19997;-64
2024/04/12 13:16:16;;;;;;;3.22;1.00;;;23.20;60.40;;;;;;5477919;26;20025;-64
2024/04/12 13:18:45;;;;;;;0.85;0.80;;;23.20;60.40;;;;;;5468103;26;20030;-64
2024/04/12 13:21:14;;;;;;;2.75;1.33;;;23.30;60.50;;;;;;5479596;26;20011;-64
2024/04/12 13:23:41;;;;;;;2.05;1.38;;;23.60;60.60;;;;;;5472044;26;20010;-65
2024/04/12 13:26:08;;;;;;;3.13;1.33;;;23.80;59.60;;;;;;5472353;26;20032;-64
2024/04/12 13:28:34;;;;;;;2.50;0.90;;;23.90;59.70;;;;;;5472331;26;20075;-65
2024/04/12 13:31:00;;;;;;;1.05;0.70;;;24.00;58.80;;;;;;5482966;26;20041;-64
2024/04/12 13:33:26;;;;;;;2.10;0.77;;;24.20;57.90;;;;;;5478793;26;20460;-64
2024/04/12 13:36:00;;;;;;;0.68;0.68;;;24.10;57.90;;;;;;5472025;26;20095;-71
2024/04/12 13:38:27;;;;;;;2.00;0.82;;;24.10;57.50;;;;;;5467801;26;20002;-70
2024/04/12 13:40:57;;;;;;;1.45;0.68;;;23.80;57.40;;;;;;5475711;26;20013;-71
2024/04/12 13:43:25;;;;;;;1.52;0.80;;;23.70;58.00;;;;;;5481119;26;20508;-71
2024/04/12 13:51:21;;;;;;;0.50;0.30;;;23.20;58.70;;;;;;5477839;26;20065;-72
2024/04/12 13:53:51;;;;;;;0.85;0.60;;;23.00;58.90;;;;;;5480057;26;20010;-71
2024/04/12 13:56:27;;;;;;;1.45;1.02;;;22.90;59.30;;;;;;5478059;26;20484;-71
2024/04/12 13:58:56;;;;;;;1.73;0.70;;;22.80;59.40;;;;;;5464911;26;20011;-71
2024/04/12 14:01:22;;;;;;;0.60;0.60;;;22.80;59.50;;;;;;5471581;26;19995;-72
2024/04/12 14:04:02;;;;;;;1.90;0.60;;;22.70;59.90;;;;;;5479320;26;20199;-64
2024/04/12 14:06:33;;;;;;;2.20;0.55;;;22.80;60.10;;;;;;5482788;26;20017;-64
2024/04/12 14:09:00;;;;;;;1.00;0.90;;;22.80;60.20;;;;;;5478938;26;20018;-64
2024/04/12 14:11:27;;;;;;;1.20;0.73;;;22.80;60.00;;;;;;5475475;26;20006;-71
2024/04/12 14:13:53;;;;;;;0.85;0.70;;;22.70;60.20;;;;;;5470117;26;20034;-71
2024/04/12 14:16:28;;;;;;;1.40;1.13;;;22.90;60.40;;;;;;5484597;26;19998;-71
2024/04/12 14:18:55;;;;;;;2.80;0.93;;;23.10;60.00;;;;;;5484656;26;20079;-71
2024/04/12 14:21:21;;;;;;;1.17;0.98;;;23.20;60.00;;;;;;5483682;26;20002;-72
2024/04/12 14:23:47;;;;;;;1.95;0.68;;;23.10;60.00;;;;;;5482818;26;20013;-71
2024/04/12 14:26:13;;;;;;;3.42;1.77;;;23.10;60.00;;;;;;5485093;26;19998;-71
2024/04/12 14:28:40;;;;;;;1.58;0.80;;;23.00;60.40;;;;;;5477317;26;20002;-72